sensor_id;sensor_type;location;lat;lon;timestamp;P1;durP1;ratioP1;P2;durP2;ratioP2
42294;SDS011;27947;47.556;18.718;2024-02-21T00:01:32;2.25;;;1.00;;
42294;SDS011;27947;47.556;18.718;2024-02-21T00:03:57;4.35;;;1.50;;
42294;SDS011;27947;47.556;18.718;2024-02-21T00:06:22;5.95;;;1.35;;
42294;SDS011;27947;47.556;18.718;2024-02-21T00:08:48;2.28;;;1.20;;
42294;SDS011;27947;47.556;18.718;2024-02-21T00:11:13;5.57;;;1.23;;
42294;SDS011;27947;47.556;18.718;2024-02-21T00:13:38;3.42;;;1.30;;
42294;SDS011;27947;47.556;18.718;2024-02-21T00:16:03;2.75;;;1.20;;
42294;SDS011;27947;47.556;18.718;2024-02-21T00:18:29;2.97;;;1.58;;
42294;SDS011;27947;47.556;18.718;2024-02-21T00:20:55;5.30;;;1.15;;
42294;SDS011;27947;47.556;18.718;2024-02-21T00:23:20;4.03;;;1.40;;
42294;SDS011;27947;47.556;18.718;2024-02-21T00:25:46;3.58;;;1.35;;
42294;SDS011;27947;47.556;18.718;2024-02-21T00:28:11;3.35;;;1.13;;
42294;SDS011;27947;47.556;18.718;2024-02-21T00:30:36;2.78;;;1.35;;
42294;SDS011;27947;47.556;18.718;2024-02-21T00:33:03;2.97;;;1.17;;
42294;SDS011;27947;47.556;18.718;2024-02-21T00:35:29;3.75;;;1.27;;
42294;SDS011;27947;47.556;18.718;2024-02-21T00:37:54;3.92;;;1.27;;
42294;SDS011;27947;47.556;18.718;2024-02-21T00:40:19;3.70;;;1.35;;
42294;SDS011;27947;47.556;18.718;2024-02-21T00:42:46;3.97;;;1.25;;
42294;SDS011;27947;47.556;18.718;2024-02-21T00:45:12;6.05;;;1.80;;
42294;SDS011;27947;47.556;18.718;2024-02-21T00:47:37;4.93;;;1.42;;
42294;SDS011;27947;47.556;18.718;2024-02-21T00:50:02;3.38;;;1.50;;
42294;SDS011;27947;47.556;18.718;2024-02-21T00:52:28;3.38;;;1.15;;
42294;SDS011;27947;47.556;18.718;2024-02-21T00:54:53;3.40;;;1.30;;
42294;SDS011;27947;47.556;18.718;2024-02-21T00:57:18;2.35;;;1.38;;
42294;SDS011;27947;47.556;18.718;2024-02-21T00:59:43;5.07;;;1.50;;
42294;SDS011;27947;47.556;18.718;2024-02-21T01:02:09;2.70;;;1.40;;
42294;SDS011;27947;47.556;18.718;2024-02-21T01:04:34;3.42;;;1.50;;
42294;SDS011;27947;47.556;18.718;2024-02-21T01:07:00;3.75;;;1.23;;
42294;SDS011;27947;47.556;18.718;2024-02-21T01:09:25;2.28;;;1.30;;
42294;SDS011;27947;47.556;18.718;2024-02-21T01:11:50;3.95;;;1.60;;
42294;SDS011;27947;47.556;18.718;2024-02-21T01:14:15;3.70;;;1.40;;
42294;SDS011;27947;47.556;18.718;2024-02-21T01:16:41;4.88;;;1.65;;
42294;SDS011;27947;47.556;18.718;2024-02-21T01:19:06;3.72;;;1.90;;
42294;SDS011;27947;47.556;18.718;2024-02-21T01:21:31;3.38;;;1.60;;
42294;SDS011;27947;47.556;18.718;2024-02-21T01:23:56;4.28;;;1.58;;
42294;SDS011;27947;47.556;18.718;2024-02-21T01:26:22;3.00;;;1.60;;
42294;SDS011;27947;47.556;18.718;2024-02-21T01:28:47;3.13;;;1.55;;
42294;SDS011;27947;47.556;18.718;2024-02-21T01:31:12;5.35;;;1.85;;
42294;SDS011;27947;47.556;18.718;2024-02-21T01:33:38;5.10;;;1.80;;
42294;SDS011;27947;47.556;18.718;2024-02-21T01:36:04;5.32;;;1.90;;
42294;SDS011;27947;47.556;18.718;2024-02-21T01:38:31;4.25;;;1.80;;
42294;SDS011;27947;47.556;18.718;2024-02-21T01:40:57;7.15;;;2.30;;
42294;SDS011;27947;47.556;18.718;2024-02-21T01:43:22;4.07;;;2.08;;
42294;SDS011;27947;47.556;18.718;2024-02-21T01:45:48;6.35;;;1.98;;
42294;SDS011;27947;47.556;18.718;2024-02-21T01:48:14;7.50;;;1.90;;
42294;SDS011;27947;47.556;18.718;2024-02-21T01:50:40;4.85;;;1.60;;
42294;SDS011;27947;47.556;18.718;2024-02-21T01:53:05;5.53;;;1.80;;
42294;SDS011;27947;47.556;18.718;2024-02-21T01:55:30;4.07;;;1.65;;
42294;SDS011;27947;47.556;18.718;2024-02-21T01:57:56;3.72;;;1.50;;
42294;SDS011;27947;47.556;18.718;2024-02-21T02:00:21;6.40;;;2.05;;
42294;SDS011;27947;47.556;18.718;2024-02-21T02:02:47;3.10;;;1.52;;
42294;SDS011;27947;47.556;18.718;2024-02-21T02:05:12;3.78;;;1.60;;
42294;SDS011;27947;47.556;18.718;2024-02-21T02:07:37;5.40;;;1.80;;
42294;SDS011;27947;47.556;18.718;2024-02-21T02:10:03;5.35;;;1.63;;
42294;SDS011;27947;47.556;18.718;2024-02-21T02:12:28;3.85;;;1.67;;
42294;SDS011;27947;47.556;18.718;2024-02-21T02:15:00;4.00;;;1.50;;
42294;SDS011;27947;47.556;18.718;2024-02-21T02:17:25;2.70;;;1.45;;
42294;SDS011;27947;47.556;18.718;2024-02-21T02:19:51;5.75;;;1.50;;
42294;SDS011;27947;47.556;18.718;2024-02-21T02:22:18;3.88;;;1.70;;
42294;SDS011;27947;47.556;18.718;2024-02-21T02:24:46;4.72;;;1.80;;
42294;SDS011;27947;47.556;18.718;2024-02-21T02:27:11;4.82;;;2.20;;
42294;SDS011;27947;47.556;18.718;2024-02-21T02:29:36;3.42;;;1.70;;
42294;SDS011;27947;47.556;18.718;2024-02-21T02:32:02;5.15;;;1.70;;
42294;SDS011;27947;47.556;18.718;2024-02-21T02:34:27;4.32;;;1.95;;
42294;SDS011;27947;47.556;18.718;2024-02-21T02:36:52;5.55;;;1.90;;
42294;SDS011;27947;47.556;18.718;2024-02-21T02:39:17;4.32;;;1.80;;
42294;SDS011;27947;47.556;18.718;2024-02-21T02:41:43;6.65;;;1.55;;
42294;SDS011;27947;47.556;18.718;2024-02-21T02:44:08;3.67;;;1.52;;
42294;SDS011;27947;47.556;18.718;2024-02-21T02:46:33;6.50;;;1.92;;
42294;SDS011;27947;47.556;18.718;2024-02-21T02:48:59;5.47;;;1.80;;
42294;SDS011;27947;47.556;18.718;2024-02-21T02:51:24;4.78;;;1.63;;
42294;SDS011;27947;47.556;18.718;2024-02-21T02:53:49;5.88;;;1.83;;
42294;SDS011;27947;47.556;18.718;2024-02-21T02:56:15;4.40;;;1.70;;
42294;SDS011;27947;47.556;18.718;2024-02-21T02:58:41;5.15;;;1.70;;
42294;SDS011;27947;47.556;18.718;2024-02-21T03:01:06;4.75;;;1.60;;
42294;SDS011;27947;47.556;18.718;2024-02-21T03:03:32;4.88;;;1.88;;
42294;SDS011;27947;47.556;18.718;2024-02-21T03:05:57;4.68;;;1.42;;
42294;SDS011;27947;47.556;18.718;2024-02-21T03:08:22;4.63;;;1.48;;
42294;SDS011;27947;47.556;18.718;2024-02-21T03:10:47;2.78;;;1.50;;
42294;SDS011;27947;47.556;18.718;2024-02-21T03:13:13;3.33;;;1.48;;
42294;SDS011;27947;47.556;18.718;2024-02-21T03:15:39;4.88;;;1.48;;
42294;SDS011;27947;47.556;18.718;2024-02-21T03:18:04;6.78;;;1.73;;
42294;SDS011;27947;47.556;18.718;2024-02-21T03:20:29;5.13;;;1.77;;
42294;SDS011;27947;47.556;18.718;2024-02-21T03:22:54;5.78;;;1.55;;
42294;SDS011;27947;47.556;18.718;2024-02-21T03:25:20;4.20;;;1.60;;
42294;SDS011;27947;47.556;18.718;2024-02-21T03:27:45;4.18;;;1.35;;
42294;SDS011;27947;47.556;18.718;2024-02-21T03:30:11;7.25;;;1.92;;
42294;SDS011;27947;47.556;18.718;2024-02-21T03:32:37;4.35;;;1.75;;
42294;SDS011;27947;47.556;18.718;2024-02-21T03:35:04;5.22;;;1.85;;
42294;SDS011;27947;47.556;18.718;2024-02-21T03:37:29;7.90;;;1.70;;
42294;SDS011;27947;47.556;18.718;2024-02-21T03:39:55;5.32;;;1.80;;
42294;SDS011;27947;47.556;18.718;2024-02-21T03:42:20;6.28;;;1.83;;
42294;SDS011;27947;47.556;18.718;2024-02-21T03:44:45;4.32;;;2.00;;
42294;SDS011;27947;47.556;18.718;2024-02-21T03:47:11;3.63;;;1.85;;
42294;SDS011;27947;47.556;18.718;2024-02-21T03:49:36;4.50;;;1.48;;
42294;SDS011;27947;47.556;18.718;2024-02-21T03:52:02;4.80;;;1.50;;
42294;SDS011;27947;47.556;18.718;2024-02-21T03:54:27;4.80;;;1.83;;
42294;SDS011;27947;47.556;18.718;2024-02-21T03:56:52;6.18;;;1.70;;
42294;SDS011;27947;47.556;18.718;2024-02-21T03:59:18;5.45;;;1.83;;
42294;SDS011;27947;47.556;18.718;2024-02-21T04:01:43;4.82;;;1.73;;
42294;SDS011;27947;47.556;18.718;2024-02-21T04:04:09;5.88;;;2.03;;
42294;SDS011;27947;47.556;18.718;2024-02-21T04:06:34;4.18;;;1.75;;
42294;SDS011;27947;47.556;18.718;2024-02-21T04:09:00;4.38;;;1.75;;
42294;SDS011;27947;47.556;18.718;2024-02-21T04:11:25;3.03;;;1.90;;
42294;SDS011;27947;47.556;18.718;2024-02-21T04:13:50;5.55;;;1.67;;
42294;SDS011;27947;47.556;18.718;2024-02-21T04:16:16;6.47;;;2.00;;
42294;SDS011;27947;47.556;18.718;2024-02-21T04:18:42;6.75;;;1.92;;
42294;SDS011;27947;47.556;18.718;2024-02-21T04:21:07;5.07;;;1.80;;
42294;SDS011;27947;47.556;18.718;2024-02-21T04:23:32;3.30;;;1.80;;
42294;SDS011;27947;47.556;18.718;2024-02-21T04:25:58;5.53;;;1.60;;
42294;SDS011;27947;47.556;18.718;2024-02-21T04:28:23;6.57;;;1.80;;
42294;SDS011;27947;47.556;18.718;2024-02-21T04:30:48;6.03;;;2.10;;
42294;SDS011;27947;47.556;18.718;2024-02-21T04:33:13;3.47;;;1.70;;
42294;SDS011;27947;47.556;18.718;2024-02-21T04:35:39;6.88;;;2.10;;
42294;SDS011;27947;47.556;18.718;2024-02-21T04:38:04;7.28;;;1.88;;
42294;SDS011;27947;47.556;18.718;2024-02-21T04:40:29;5.88;;;2.30;;
42294;SDS011;27947;47.556;18.718;2024-02-21T04:42:56;5.57;;;2.03;;
42294;SDS011;27947;47.556;18.718;2024-02-21T04:45:21;3.33;;;1.77;;
42294;SDS011;27947;47.556;18.718;2024-02-21T04:47:47;8.15;;;2.30;;
42294;SDS011;27947;47.556;18.718;2024-02-21T04:50:12;5.30;;;2.15;;
42294;SDS011;27947;47.556;18.718;2024-02-21T04:52:37;4.38;;;1.90;;
42294;SDS011;27947;47.556;18.718;2024-02-21T04:55:03;5.82;;;1.80;;
42294;SDS011;27947;47.556;18.718;2024-02-21T04:57:28;7.18;;;2.22;;
42294;SDS011;27947;47.556;18.718;2024-02-21T04:59:53;8.80;;;3.17;;
42294;SDS011;27947;47.556;18.718;2024-02-21T05:02:19;5.47;;;1.88;;
42294;SDS011;27947;47.556;18.718;2024-02-21T05:04:47;5.57;;;2.45;;
42294;SDS011;27947;47.556;18.718;2024-02-21T05:07:12;10.70;;;1.95;;
42294;SDS011;27947;47.556;18.718;2024-02-21T05:09:38;4.88;;;2.03;;
42294;SDS011;27947;47.556;18.718;2024-02-21T05:12:03;8.32;;;2.15;;
42294;SDS011;27947;47.556;18.718;2024-02-21T05:14:28;6.15;;;2.20;;
42294;SDS011;27947;47.556;18.718;2024-02-21T05:16:54;7.05;;;2.17;;
42294;SDS011;27947;47.556;18.718;2024-02-21T05:19:19;7.43;;;2.10;;
42294;SDS011;27947;47.556;18.718;2024-02-21T05:21:44;5.07;;;2.10;;
42294;SDS011;27947;47.556;18.718;2024-02-21T05:24:09;4.57;;;2.30;;
42294;SDS011;27947;47.556;18.718;2024-02-21T05:26:35;7.15;;;2.97;;
42294;SDS011;27947;47.556;18.718;2024-02-21T05:29:00;9.65;;;3.38;;
42294;SDS011;27947;47.556;18.718;2024-02-21T05:31:25;10.00;;;2.92;;
42294;SDS011;27947;47.556;18.718;2024-02-21T05:33:51;11.18;;;3.05;;
42294;SDS011;27947;47.556;18.718;2024-02-21T05:36:17;7.90;;;2.50;;
42294;SDS011;27947;47.556;18.718;2024-02-21T05:38:43;5.60;;;2.10;;
42294;SDS011;27947;47.556;18.718;2024-02-21T05:41:08;6.20;;;2.13;;
42294;SDS011;27947;47.556;18.718;2024-02-21T05:43:33;5.78;;;2.00;;
42294;SDS011;27947;47.556;18.718;2024-02-21T05:45:58;4.70;;;2.28;;
42294;SDS011;27947;47.556;18.718;2024-02-21T05:48:24;9.40;;;3.50;;
42294;SDS011;27947;47.556;18.718;2024-02-21T05:50:49;5.60;;;1.95;;
42294;SDS011;27947;47.556;18.718;2024-02-21T05:53:15;6.32;;;2.40;;
42294;SDS011;27947;47.556;18.718;2024-02-21T05:55:40;5.60;;;2.10;;
42294;SDS011;27947;47.556;18.718;2024-02-21T05:58:05;9.30;;;2.85;;
42294;SDS011;27947;47.556;18.718;2024-02-21T06:00:31;5.55;;;2.03;;
42294;SDS011;27947;47.556;18.718;2024-02-21T06:02:56;5.93;;;1.85;;
42294;SDS011;27947;47.556;18.718;2024-02-21T06:05:22;6.47;;;1.77;;
42294;SDS011;27947;47.556;18.718;2024-02-21T06:07:47;5.22;;;2.00;;
42294;SDS011;27947;47.556;18.718;2024-02-21T06:10:12;6.25;;;2.30;;
42294;SDS011;27947;47.556;18.718;2024-02-21T06:12:37;7.18;;;2.25;;
42294;SDS011;27947;47.556;18.718;2024-02-21T06:15:03;6.93;;;2.20;;
42294;SDS011;27947;47.556;18.718;2024-02-21T06:17:28;3.58;;;1.85;;
42294;SDS011;27947;47.556;18.718;2024-02-21T06:19:53;4.70;;;1.90;;
42294;SDS011;27947;47.556;18.718;2024-02-21T06:22:18;6.60;;;2.50;;
42294;SDS011;27947;47.556;18.718;2024-02-21T06:24:44;10.52;;;2.83;;
42294;SDS011;27947;47.556;18.718;2024-02-21T06:27:09;8.80;;;2.90;;
42294;SDS011;27947;47.556;18.718;2024-02-21T06:29:36;7.53;;;3.15;;
42294;SDS011;27947;47.556;18.718;2024-02-21T06:32:01;5.05;;;2.35;;
42294;SDS011;27947;47.556;18.718;2024-02-21T06:34:26;7.28;;;2.15;;
42294;SDS011;27947;47.556;18.718;2024-02-21T06:36:52;6.43;;;2.10;;
42294;SDS011;27947;47.556;18.718;2024-02-21T06:39:17;3.90;;;1.88;;
42294;SDS011;27947;47.556;18.718;2024-02-21T06:41:42;12.20;;;2.25;;
42294;SDS011;27947;47.556;18.718;2024-02-21T06:44:08;7.43;;;2.20;;
42294;SDS011;27947;47.556;18.718;2024-02-21T06:46:33;6.95;;;2.10;;
42294;SDS011;27947;47.556;18.718;2024-02-21T06:48:59;7.30;;;2.10;;
42294;SDS011;27947;47.556;18.718;2024-02-21T06:51:25;4.60;;;1.90;;
42294;SDS011;27947;47.556;18.718;2024-02-21T06:53:50;8.40;;;2.38;;
42294;SDS011;27947;47.556;18.718;2024-02-21T06:56:16;7.72;;;2.67;;
42294;SDS011;27947;47.556;18.718;2024-02-21T06:58:41;6.35;;;2.50;;
42294;SDS011;27947;47.556;18.718;2024-02-21T07:01:06;7.32;;;2.30;;
42294;SDS011;27947;47.556;18.718;2024-02-21T07:03:32;9.05;;;2.58;;
42294;SDS011;27947;47.556;18.718;2024-02-21T07:05:57;7.97;;;2.53;;
42294;SDS011;27947;47.556;18.718;2024-02-21T07:08:22;7.97;;;2.38;;
42294;SDS011;27947;47.556;18.718;2024-02-21T07:10:48;45.65;;;3.35;;
42294;SDS011;27947;47.556;18.718;2024-02-21T07:13:13;5.90;;;2.35;;
42294;SDS011;27947;47.556;18.718;2024-02-21T07:15:40;9.10;;;2.45;;
42294;SDS011;27947;47.556;18.718;2024-02-21T07:18:06;5.70;;;2.15;;
42294;SDS011;27947;47.556;18.718;2024-02-21T07:20:31;8.20;;;2.25;;
42294;SDS011;27947;47.556;18.718;2024-02-21T07:22:58;7.07;;;2.42;;
42294;SDS011;27947;47.556;18.718;2024-02-21T07:25:23;5.45;;;2.10;;
42294;SDS011;27947;47.556;18.718;2024-02-21T07:27:49;5.47;;;2.20;;
42294;SDS011;27947;47.556;18.718;2024-02-21T07:30:14;7.63;;;2.90;;
42294;SDS011;27947;47.556;18.718;2024-02-21T07:32:39;7.53;;;2.63;;
42294;SDS011;27947;47.556;18.718;2024-02-21T07:35:05;10.52;;;2.40;;
42294;SDS011;27947;47.556;18.718;2024-02-21T07:37:30;12.23;;;2.60;;
42294;SDS011;27947;47.556;18.718;2024-02-21T07:39:56;5.18;;;2.35;;
42294;SDS011;27947;47.556;18.718;2024-02-21T07:42:21;7.15;;;3.20;;
42294;SDS011;27947;47.556;18.718;2024-02-21T07:44:46;10.10;;;3.42;;
42294;SDS011;27947;47.556;18.718;2024-02-21T07:47:12;9.38;;;3.10;;
42294;SDS011;27947;47.556;18.718;2024-02-21T07:49:40;9.07;;;2.92;;
42294;SDS011;27947;47.556;18.718;2024-02-21T07:52:06;10.15;;;3.08;;
42294;SDS011;27947;47.556;18.718;2024-02-21T07:54:31;8.43;;;2.88;;
42294;SDS011;27947;47.556;18.718;2024-02-21T07:56:56;9.52;;;2.58;;
42294;SDS011;27947;47.556;18.718;2024-02-21T07:59:21;8.93;;;2.47;;
42294;SDS011;27947;47.556;18.718;2024-02-21T08:01:47;9.07;;;2.67;;
42294;SDS011;27947;47.556;18.718;2024-02-21T08:04:12;7.88;;;2.75;;
42294;SDS011;27947;47.556;18.718;2024-02-21T08:06:37;8.73;;;2.47;;
42294;SDS011;27947;47.556;18.718;2024-02-21T08:09:02;8.73;;;2.67;;
42294;SDS011;27947;47.556;18.718;2024-02-21T08:11:28;6.30;;;2.58;;
42294;SDS011;27947;47.556;18.718;2024-02-21T08:13:53;8.18;;;2.47;;
42294;SDS011;27947;47.556;18.718;2024-02-21T08:16:18;10.93;;;2.97;;
42294;SDS011;27947;47.556;18.718;2024-02-21T08:18:44;7.93;;;2.53;;
42294;SDS011;27947;47.556;18.718;2024-02-21T08:21:09;7.93;;;2.58;;
42294;SDS011;27947;47.556;18.718;2024-02-21T08:23:34;8.50;;;2.78;;
42294;SDS011;27947;47.556;18.718;2024-02-21T08:26:02;7.07;;;3.03;;
42294;SDS011;27947;47.556;18.718;2024-02-21T08:28:27;9.65;;;3.30;;
42294;SDS011;27947;47.556;18.718;2024-02-21T08:30:53;9.80;;;3.28;;
42294;SDS011;27947;47.556;18.718;2024-02-21T08:33:18;10.48;;;3.22;;
42294;SDS011;27947;47.556;18.718;2024-02-21T08:35:44;9.38;;;2.78;;
42294;SDS011;27947;47.556;18.718;2024-02-21T08:38:09;9.07;;;2.83;;
42294;SDS011;27947;47.556;18.718;2024-02-21T08:40:34;10.07;;;3.30;;
42294;SDS011;27947;47.556;18.718;2024-02-21T08:43:00;8.18;;;2.83;;
42294;SDS011;27947;47.556;18.718;2024-02-21T08:45:25;12.10;;;2.90;;
42294;SDS011;27947;47.556;18.718;2024-02-21T08:47:51;8.13;;;2.75;;
42294;SDS011;27947;47.556;18.718;2024-02-21T08:50:16;9.80;;;2.63;;
42294;SDS011;27947;47.556;18.718;2024-02-21T08:52:41;10.45;;;2.92;;
42294;SDS011;27947;47.556;18.718;2024-02-21T08:55:07;8.68;;;2.50;;
42294;SDS011;27947;47.556;18.718;2024-02-21T08:57:32;10.80;;;2.58;;
42294;SDS011;27947;47.556;18.718;2024-02-21T09:00:03;8.98;;;3.00;;
42294;SDS011;27947;47.556;18.718;2024-02-21T09:02:34;9.25;;;2.95;;
42294;SDS011;27947;47.556;18.718;2024-02-21T09:04:59;17.25;;;3.55;;
42294;SDS011;27947;47.556;18.718;2024-02-21T09:07:25;9.10;;;2.90;;
42294;SDS011;27947;47.556;18.718;2024-02-21T09:09:50;7.45;;;2.67;;
42294;SDS011;27947;47.556;18.718;2024-02-21T09:12:15;9.13;;;2.90;;
42294;SDS011;27947;47.556;18.718;2024-02-21T09:14:40;9.77;;;2.97;;
42294;SDS011;27947;47.556;18.718;2024-02-21T09:17:06;9.95;;;3.10;;
42294;SDS011;27947;47.556;18.718;2024-02-21T09:19:31;11.27;;;3.35;;
42294;SDS011;27947;47.556;18.718;2024-02-21T09:21:56;6.60;;;2.72;;
42294;SDS011;27947;47.556;18.718;2024-02-21T09:24:22;8.75;;;3.00;;
42294;SDS011;27947;47.556;18.718;2024-02-21T09:26:47;8.00;;;2.65;;
42294;SDS011;27947;47.556;18.718;2024-02-21T09:29:12;12.30;;;3.17;;
42294;SDS011;27947;47.556;18.718;2024-02-21T09:31:37;11.07;;;3.03;;
42294;SDS011;27947;47.556;18.718;2024-02-21T09:34:04;7.95;;;2.60;;
42294;SDS011;27947;47.556;18.718;2024-02-21T09:36:29;9.05;;;2.85;;
42294;SDS011;27947;47.556;18.718;2024-02-21T09:38:55;12.23;;;3.00;;
42294;SDS011;27947;47.556;18.718;2024-02-21T09:41:26;10.68;;;2.90;;
42294;SDS011;27947;47.556;18.718;2024-02-21T09:43:54;10.18;;;2.80;;
42294;SDS011;27947;47.556;18.718;2024-02-21T09:46:21;11.52;;;2.97;;
42294;SDS011;27947;47.556;18.718;2024-02-21T09:51:29;14.63;;;3.50;;
42294;SDS011;27947;47.556;18.718;2024-02-21T09:53:56;9.88;;;3.20;;
42294;SDS011;27947;47.556;18.718;2024-02-21T09:56:21;8.65;;;3.10;;
42294;SDS011;27947;47.556;18.718;2024-02-21T09:58:46;9.50;;;3.30;;
42294;SDS011;27947;47.556;18.718;2024-02-21T10:01:12;14.07;;;2.85;;
42294;SDS011;27947;47.556;18.718;2024-02-21T10:03:37;11.50;;;4.00;;
42294;SDS011;27947;47.556;18.718;2024-02-21T10:06:03;9.35;;;2.53;;
42294;SDS011;27947;47.556;18.718;2024-02-21T10:08:28;10.23;;;2.80;;
42294;SDS011;27947;47.556;18.718;2024-02-21T10:10:54;9.07;;;3.05;;
42294;SDS011;27947;47.556;18.718;2024-02-21T10:13:27;11.52;;;3.05;;
42294;SDS011;27947;47.556;18.718;2024-02-21T10:18:27;11.07;;;3.05;;
42294;SDS011;27947;47.556;18.718;2024-02-21T10:21:00;10.25;;;3.65;;
42294;SDS011;27947;47.556;18.718;2024-02-21T10:23:25;10.43;;;3.90;;
42294;SDS011;27947;47.556;18.718;2024-02-21T10:25:50;11.80;;;3.00;;
42294;SDS011;27947;47.556;18.718;2024-02-21T10:28:16;12.07;;;3.53;;
42294;SDS011;27947;47.556;18.718;2024-02-21T10:30:50;13.45;;;3.30;;
42294;SDS011;27947;47.556;18.718;2024-02-21T10:33:15;10.45;;;3.30;;
42294;SDS011;27947;47.556;18.718;2024-02-21T10:35:41;10.75;;;3.95;;
42294;SDS011;27947;47.556;18.718;2024-02-21T10:38:06;9.73;;;3.45;;
42294;SDS011;27947;47.556;18.718;2024-02-21T10:40:31;9.07;;;3.65;;
42294;SDS011;27947;47.556;18.718;2024-02-21T10:42:57;15.73;;;4.43;;
42294;SDS011;27947;47.556;18.718;2024-02-21T10:45:29;9.55;;;3.15;;
42294;SDS011;27947;47.556;18.718;2024-02-21T10:47:55;18.20;;;3.90;;
42294;SDS011;27947;47.556;18.718;2024-02-21T10:50:21;11.32;;;4.00;;
42294;SDS011;27947;47.556;18.718;2024-02-21T10:55:16;15.90;;;3.42;;
42294;SDS011;27947;47.556;18.718;2024-02-21T10:57:44;11.65;;;2.80;;
42294;SDS011;27947;47.556;18.718;2024-02-21T11:00:10;11.02;;;3.08;;
42294;SDS011;27947;47.556;18.718;2024-02-21T11:02:37;8.52;;;3.00;;
42294;SDS011;27947;47.556;18.718;2024-02-21T11:05:04;11.77;;;2.75;;
42294;SDS011;27947;47.556;18.718;2024-02-21T11:07:30;6.25;;;2.17;;
42294;SDS011;27947;47.556;18.718;2024-02-21T11:09:57;8.75;;;2.40;;
42294;SDS011;27947;47.556;18.718;2024-02-21T11:12:24;11.38;;;2.83;;
42294;SDS011;27947;47.556;18.718;2024-02-21T11:14:50;12.32;;;2.83;;
42294;SDS011;27947;47.556;18.718;2024-02-21T11:17:18;12.57;;;3.20;;
42294;SDS011;27947;47.556;18.718;2024-02-21T11:19:44;7.65;;;2.47;;
42294;SDS011;27947;47.556;18.718;2024-02-21T11:22:20;10.27;;;1.77;;
42294;SDS011;27947;47.556;18.718;2024-02-21T11:24:49;6.47;;;2.00;;
42294;SDS011;27947;47.556;18.718;2024-02-21T11:27:15;7.18;;;2.05;;
42294;SDS011;27947;47.556;18.718;2024-02-21T11:29:48;12.38;;;2.58;;
42294;SDS011;27947;47.556;18.718;2024-02-21T11:32:16;9.82;;;2.53;;
42294;SDS011;27947;47.556;18.718;2024-02-21T11:34:52;7.88;;;2.50;;
42294;SDS011;27947;47.556;18.718;2024-02-21T11:37:18;9.52;;;2.55;;
42294;SDS011;27947;47.556;18.718;2024-02-21T11:39:44;7.95;;;2.58;;
42294;SDS011;27947;47.556;18.718;2024-02-21T11:42:09;6.43;;;2.10;;
42294;SDS011;27947;47.556;18.718;2024-02-21T11:44:38;9.70;;;2.75;;
42294;SDS011;27947;47.556;18.718;2024-02-21T11:47:06;12.02;;;2.60;;
42294;SDS011;27947;47.556;18.718;2024-02-21T11:49:36;10.30;;;2.28;;
42294;SDS011;27947;47.556;18.718;2024-02-21T11:52:02;8.90;;;2.38;;
42294;SDS011;27947;47.556;18.718;2024-02-21T11:54:32;9.70;;;2.60;;
42294;SDS011;27947;47.556;18.718;2024-02-21T11:56:58;8.43;;;2.63;;
42294;SDS011;27947;47.556;18.718;2024-02-21T11:59:24;11.43;;;2.45;;
42294;SDS011;27947;47.556;18.718;2024-02-21T12:01:49;7.22;;;2.22;;
42294;SDS011;27947;47.556;18.718;2024-02-21T12:04:17;6.43;;;2.40;;
42294;SDS011;27947;47.556;18.718;2024-02-21T12:06:44;6.53;;;2.15;;
42294;SDS011;27947;47.556;18.718;2024-02-21T12:09:10;12.70;;;3.05;;
42294;SDS011;27947;47.556;18.718;2024-02-21T12:11:38;9.00;;;2.70;;
42294;SDS011;27947;47.556;18.718;2024-02-21T12:14:04;13.85;;;3.97;;
42294;SDS011;27947;47.556;18.718;2024-02-21T12:16:33;9.50;;;2.67;;
42294;SDS011;27947;47.556;18.718;2024-02-21T12:18:58;14.50;;;3.25;;
42294;SDS011;27947;47.556;18.718;2024-02-21T12:21:24;10.05;;;2.45;;
42294;SDS011;27947;47.556;18.718;2024-02-21T12:23:50;8.70;;;3.33;;
42294;SDS011;27947;47.556;18.718;2024-02-21T12:26:15;8.73;;;2.72;;
42294;SDS011;27947;47.556;18.718;2024-02-21T12:28:40;7.85;;;2.53;;
42294;SDS011;27947;47.556;18.718;2024-02-21T12:31:05;7.07;;;2.13;;
42294;SDS011;27947;47.556;18.718;2024-02-21T12:33:31;9.07;;;2.63;;
42294;SDS011;27947;47.556;18.718;2024-02-21T12:35:56;6.95;;;2.33;;
42294;SDS011;27947;47.556;18.718;2024-02-21T12:38:22;10.18;;;2.60;;
42294;SDS011;27947;47.556;18.718;2024-02-21T12:40:47;10.18;;;2.47;;
42294;SDS011;27947;47.556;18.718;2024-02-21T12:43:12;10.63;;;2.50;;
42294;SDS011;27947;47.556;18.718;2024-02-21T12:45:38;9.23;;;2.55;;
42294;SDS011;27947;47.556;18.718;2024-02-21T12:48:03;11.00;;;2.55;;
42294;SDS011;27947;47.556;18.718;2024-02-21T12:50:29;11.18;;;2.72;;
42294;SDS011;27947;47.556;18.718;2024-02-21T12:52:56;8.75;;;2.38;;
42294;SDS011;27947;47.556;18.718;2024-02-21T12:55:21;7.65;;;2.50;;
42294;SDS011;27947;47.556;18.718;2024-02-21T12:57:46;7.72;;;2.10;;
42294;SDS011;27947;47.556;18.718;2024-02-21T13:00:12;9.85;;;2.70;;
42294;SDS011;27947;47.556;18.718;2024-02-21T13:02:37;7.18;;;2.35;;
42294;SDS011;27947;47.556;18.718;2024-02-21T13:05:03;10.18;;;2.97;;
42294;SDS011;27947;47.556;18.718;2024-02-21T13:07:28;9.02;;;2.40;;
42294;SDS011;27947;47.556;18.718;2024-02-21T13:09:54;10.27;;;2.38;;
42294;SDS011;27947;47.556;18.718;2024-02-21T13:12:19;8.50;;;2.65;;
42294;SDS011;27947;47.556;18.718;2024-02-21T13:14:44;10.70;;;2.60;;
42294;SDS011;27947;47.556;18.718;2024-02-21T13:17:09;8.18;;;2.10;;
42294;SDS011;27947;47.556;18.718;2024-02-21T13:19:35;7.43;;;2.53;;
42294;SDS011;27947;47.556;18.718;2024-02-21T13:22:00;9.95;;;2.50;;
42294;SDS011;27947;47.556;18.718;2024-02-21T13:24:27;9.57;;;2.50;;
42294;SDS011;27947;47.556;18.718;2024-02-21T13:26:52;8.30;;;2.42;;
42294;SDS011;27947;47.556;18.718;2024-02-21T13:29:17;6.40;;;1.85;;
42294;SDS011;27947;47.556;18.718;2024-02-21T13:31:43;8.35;;;2.25;;
42294;SDS011;27947;47.556;18.718;2024-02-21T13:34:09;10.68;;;2.15;;
42294;SDS011;27947;47.556;18.718;2024-02-21T13:36:34;8.65;;;2.28;;
42294;SDS011;27947;47.556;18.718;2024-02-21T13:38:59;10.45;;;2.30;;
42294;SDS011;27947;47.556;18.718;2024-02-21T13:41:25;7.82;;;2.33;;
42294;SDS011;27947;47.556;18.718;2024-02-21T13:43:50;8.73;;;1.98;;
42294;SDS011;27947;47.556;18.718;2024-02-21T13:46:15;9.43;;;2.45;;
42294;SDS011;27947;47.556;18.718;2024-02-21T13:48:40;7.85;;;2.63;;
42294;SDS011;27947;47.556;18.718;2024-02-21T13:51:06;6.25;;;1.80;;
42294;SDS011;27947;47.556;18.718;2024-02-21T13:53:31;8.75;;;2.70;;
42294;SDS011;27947;47.556;18.718;2024-02-21T13:55:56;10.00;;;2.60;;
42294;SDS011;27947;47.556;18.718;2024-02-21T13:58:22;9.35;;;1.90;;
42294;SDS011;27947;47.556;18.718;2024-02-21T14:00:47;7.18;;;2.17;;
42294;SDS011;27947;47.556;18.718;2024-02-21T14:03:12;6.82;;;2.22;;
42294;SDS011;27947;47.556;18.718;2024-02-21T14:05:38;10.27;;;1.98;;
42294;SDS011;27947;47.556;18.718;2024-02-21T14:08:05;6.15;;;2.00;;
42294;SDS011;27947;47.556;18.718;2024-02-21T14:10:30;7.78;;;2.22;;
42294;SDS011;27947;47.556;18.718;2024-02-21T14:12:55;7.85;;;2.15;;
42294;SDS011;27947;47.556;18.718;2024-02-21T14:15:22;9.07;;;2.28;;
42294;SDS011;27947;47.556;18.718;2024-02-21T14:17:47;4.88;;;1.67;;
42294;SDS011;27947;47.556;18.718;2024-02-21T14:20:12;6.15;;;1.85;;
42294;SDS011;27947;47.556;18.718;2024-02-21T14:22:39;5.45;;;1.92;;
42294;SDS011;27947;47.556;18.718;2024-02-21T14:25:04;5.25;;;1.73;;
42294;SDS011;27947;47.556;18.718;2024-02-21T14:27:32;6.18;;;1.55;;
42294;SDS011;27947;47.556;18.718;2024-02-21T14:29:57;5.78;;;1.60;;